sensor_id;sensor_type;location;lat;lon;timestamp;pressure;altitude;pressure_sealevel;temperature;humidity
79077;BME280;68477;42.698;23.342;2023-04-24T00:00:54;95147.72;;;11.38;53.79
79077;BME280;68477;42.698;23.342;2023-04-24T00:03:22;95162.53;;;11.39;53.14
79077;BME280;68477;42.698;23.342;2023-04-24T00:05:47;95149.03;;;11.19;53.12
79077;BME280;68477;42.698;23.342;2023-04-24T00:08:13;95146.03;;;11.07;55.23
79077;BME280;68477;42.698;23.342;2023-04-24T00:10:38;95133.53;;;10.87;54.74
79077;BME280;68477;42.698;23.342;2023-04-24T00:13:04;95125.81;;;10.85;53.93
79077;BME280;68477;42.698;23.342;2023-04-24T00:15:29;95132.84;;;10.93;54.63
79077;BME280;68477;42.698;23.342;2023-04-24T00:17:56;95134.88;;;11.05;54.63
79077;BME280;68477;42.698;23.342;2023-04-24T00:20:21;95142.59;;;10.84;54.64
79077;BME280;68477;42.698;23.342;2023-04-24T00:22:47;95132.72;;;10.86;54.25
79077;BME280;68477;42.698;23.342;2023-04-24T00:25:13;95131.84;;;10.94;54.08
79077;BME280;68477;42.698;23.342;2023-04-24T00:27:38;95128.25;;;10.87;53.92
79077;BME280;68477;42.698;23.342;2023-04-24T00:30:04;95120.38;;;10.87;55.15
79077;BME280;68477;42.698;23.342;2023-04-24T00:32:30;95129.59;;;11.05;53.73
79077;BME280;68477;42.698;23.342;2023-04-24T00:34:55;95131.72;;;11.10;53.61
79077;BME280;68477;42.698;23.342;2023-04-24T00:37:21;95128.91;;;11.12;53.85
79077;BME280;68477;42.698;23.342;2023-04-24T00:39:46;95134.34;;;11.10;53.38
79077;BME280;68477;42.698;23.342;2023-04-24T00:42:12;95133.81;;;11.29;53.57
79077;BME280;68477;42.698;23.342;2023-04-24T00:44:37;95133.56;;;11.24;54.21
79077;BME280;68477;42.698;23.342;2023-04-24T00:47:03;95132.34;;;11.12;53.74
79077;BME280;68477;42.698;23.342;2023-04-24T00:49:29;95132.19;;;11.28;52.76
79077;BME280;68477;42.698;23.342;2023-04-24T00:51:54;95134.81;;;11.28;53.46
79077;BME280;68477;42.698;23.342;2023-04-24T00:54:20;95130.97;;;11.16;53.08
79077;BME280;68477;42.698;23.342;2023-04-24T00:56:45;95125.81;;;10.85;56.35
79077;BME280;68477;42.698;23.342;2023-04-24T00:59:12;95126.94;;;10.91;55.72
79077;BME280;68477;42.698;23.342;2023-04-24T01:01:39;95122.34;;;11.07;54.93
79077;BME280;68477;42.698;23.342;2023-04-24T01:04:07;95129.72;;;11.12;54.14
79077;BME280;68477;42.698;23.342;2023-04-24T01:06:33;95126.44;;;10.87;55.39
79077;BME280;68477;42.698;23.342;2023-04-24T01:08:59;95118.88;;;10.92;55.24
79077;BME280;68477;42.698;23.342;2023-04-24T01:11:25;95126.50;;;11.02;56.53
79077;BME280;68477;42.698;23.342;2023-04-24T01:13:51;95128.00;;;11.19;54.42
79077;BME280;68477;42.698;23.342;2023-04-24T01:16:17;95123.97;;;11.08;56.36
79077;BME280;68477;42.698;23.342;2023-04-24T01:18:45;95113.97;;;10.89;56.96
79077;BME280;68477;42.698;23.342;2023-04-24T01:21:13;95115.06;;;10.72;60.57
79077;BME280;68477;42.698;23.342;2023-04-24T01:23:39;95110.47;;;10.51;62.21
79077;BME280;68477;42.698;23.342;2023-04-24T01:26:05;95106.00;;;10.52;63.40
79077;BME280;68477;42.698;23.342;2023-04-24T01:28:31;95103.19;;;10.30;61.18
79077;BME280;68477;42.698;23.342;2023-04-24T01:30:56;95097.22;;;10.44;62.96
79077;BME280;68477;42.698;23.342;2023-04-24T01:33:22;95101.00;;;10.42;60.77
79077;BME280;68477;42.698;23.342;2023-04-24T01:35:48;95095.25;;;10.38;60.18
79077;BME280;68477;42.698;23.342;2023-04-24T01:38:14;95094.50;;;10.30;61.38
79077;BME280;68477;42.698;23.342;2023-04-24T01:40:39;95093.81;;;10.36;62.10
79077;BME280;68477;42.698;23.342;2023-04-24T01:43:05;95092.13;;;10.43;61.07
79077;BME280;68477;42.698;23.342;2023-04-24T01:45:30;95090.19;;;10.37;60.16
79077;BME280;68477;42.698;23.342;2023-04-24T01:47:56;95091.13;;;10.13;60.65
79077;BME280;68477;42.698;23.342;2023-04-24T01:50:22;95092.63;;;10.38;61.37
79077;BME280;68477;42.698;23.342;2023-04-24T01:52:47;95087.75;;;10.35;60.49
79077;BME280;68477;42.698;23.342;2023-04-24T01:55:13;95079.13;;;10.41;60.47
79077;BME280;68477;42.698;23.342;2023-04-24T01:57:39;95084.50;;;10.25;61.94
79077;BME280;68477;42.698;23.342;2023-04-24T02:00:05;95076.66;;;10.17;62.31
79077;BME280;68477;42.698;23.342;2023-04-24T02:02:32;95086.34;;;10.16;62.66
79077;BME280;68477;42.698;23.342;2023-04-24T02:04:58;95086.50;;;10.23;62.10
79077;BME280;68477;42.698;23.342;2023-04-24T02:07:24;95086.69;;;10.22;63.39
79077;BME280;68477;42.698;23.342;2023-04-24T02:09:49;95086.22;;;10.10;61.62
79077;BME280;68477;42.698;23.342;2023-04-24T02:12:15;95087.88;;;10.11;63.14
79077;BME280;68477;42.698;23.342;2023-04-24T02:14:42;95078.00;;;10.13;63.72
79077;BME280;68477;42.698;23.342;2023-04-24T02:17:08;95080.25;;;9.85;62.99
79077;BME280;68477;42.698;23.342;2023-04-24T02:19:34;95078.38;;;10.02;62.49
79077;BME280;68477;42.698;23.342;2023-04-24T02:21:59;95080.19;;;10.01;62.92
79077;BME280;68477;42.698;23.342;2023-04-24T02:24:25;95076.28;;;9.97;63.12
79077;BME280;68477;42.698;23.342;2023-04-24T02:26:50;95086.50;;;9.84;63.60
79077;BME280;68477;42.698;23.342;2023-04-24T02:29:16;95084.06;;;9.82;63.62
79077;BME280;68477;42.698;23.342;2023-04-24T02:31:41;95079.94;;;9.88;63.37
79077;BME280;68477;42.698;23.342;2023-04-24T02:34:07;95071.56;;;9.84;63.13
79077;BME280;68477;42.698;23.342;2023-04-24T02:36:32;95066.13;;;9.55;62.93
79077;BME280;68477;42.698;23.342;2023-04-24T02:38:58;95064.50;;;9.54;63.03
79077;BME280;68477;42.698;23.342;2023-04-24T02:41:23;95064.88;;;9.43;64.04
79077;BME280;68477;42.698;23.342;2023-04-24T02:43:49;95059.19;;;9.62;64.03
79077;BME280;68477;42.698;23.342;2023-04-24T02:46:14;95049.84;;;9.68;63.10
79077;BME280;68477;42.698;23.342;2023-04-24T02:48:40;95053.69;;;9.49;63.15
79077;BME280;68477;42.698;23.342;2023-04-24T02:51:05;95050.75;;;9.52;63.03
79077;BME280;68477;42.698;23.342;2023-04-24T02:53:32;95055.28;;;9.58;62.40
79077;BME280;68477;42.698;23.342;2023-04-24T02:55:58;95054.88;;;9.38;65.14
79077;BME280;68477;42.698;23.342;2023-04-24T02:58:24;95059.09;;;9.55;63.45
79077;BME280;68477;42.698;23.342;2023-04-24T03:00:53;95053.94;;;9.62;62.30
79077;BME280;68477;42.698;23.342;2023-04-24T03:03:20;95056.19;;;9.73;61.58
79077;BME280;68477;42.698;23.342;2023-04-24T03:05:46;95054.81;;;9.54;61.81
79077;BME280;68477;42.698;23.342;2023-04-24T03:08:12;95060.75;;;9.48;63.71
79077;BME280;68477;42.698;23.342;2023-04-24T03:10:37;95068.03;;;9.69;63.03
79077;BME280;68477;42.698;23.342;2023-04-24T03:13:03;95068.03;;;9.30;62.82
79077;BME280;68477;42.698;23.342;2023-04-24T03:15:28;95069.31;;;9.42;63.23
79077;BME280;68477;42.698;23.342;2023-04-24T03:17:54;95062.88;;;9.53;62.65
79077;BME280;68477;42.698;23.342;2023-04-24T03:20:20;95058.94;;;9.49;62.43
79077;BME280;68477;42.698;23.342;2023-04-24T03:22:46;95064.34;;;9.55;62.91
79077;BME280;68477;42.698;23.342;2023-04-24T03:25:11;95066.03;;;9.40;63.31
79077;BME280;68477;42.698;23.342;2023-04-24T03:27:36;95060.81;;;9.32;63.47
79077;BME280;68477;42.698;23.342;2023-04-24T03:30:02;95070.56;;;9.54;63.12
79077;BME280;68477;42.698;23.342;2023-04-24T03:32:28;95070.78;;;9.37;63.54
79077;BME280;68477;42.698;23.342;2023-04-24T03:34:53;95064.50;;;9.54;62.58
79077;BME280;68477;42.698;23.342;2023-04-24T03:37:19;95065.75;;;9.66;62.36
79077;BME280;68477;42.698;23.342;2023-04-24T03:39:44;95069.88;;;9.60;62.67
79077;BME280;68477;42.698;23.342;2023-04-24T03:42:10;95067.53;;;9.34;63.23
79077;BME280;68477;42.698;23.342;2023-04-24T03:44:36;95065.41;;;9.69;61.64
79077;BME280;68477;42.698;23.342;2023-04-24T03:47:01;95071.44;;;9.78;61.20
79077;BME280;68477;42.698;23.342;2023-04-24T03:49:28;95066.69;;;9.73;62.00
79077;BME280;68477;42.698;23.342;2023-04-24T03:51:53;95069.47;;;9.80;61.42
79077;BME280;68477;42.698;23.342;2023-04-24T03:54:19;95067.03;;;9.70;63.31
79077;BME280;68477;42.698;23.342;2023-04-24T03:56:46;95068.03;;;9.69;62.60
79077;BME280;68477;42.698;23.342;2023-04-24T03:59:11;95065.81;;;9.89;62.39
79077;BME280;68477;42.698;23.342;2023-04-24T04:01:38;95070.94;;;9.82;61.78
79077;BME280;68477;42.698;23.342;2023-04-24T04:04:07;95067.31;;;9.83;62.24
79077;BME280;68477;42.698;23.342;2023-04-24T04:06:33;95076.78;;;9.92;61.77
79077;BME280;68477;42.698;23.342;2023-04-24T04:08:59;95068.41;;;9.97;60.59
79077;BME280;68477;42.698;23.342;2023-04-24T04:11:25;95070.16;;;10.05;59.27
79077;BME280;68477;42.698;23.342;2023-04-24T04:13:50;95072.53;;;9.91;59.47
79077;BME280;68477;42.698;23.342;2023-04-24T04:16:16;95071.28;;;9.79;58.62
79077;BME280;68477;42.698;23.342;2023-04-24T04:18:44;95069.75;;;9.85;59.42
79077;BME280;68477;42.698;23.342;2023-04-24T04:21:10;95071.28;;;10.10;59.54
79077;BME280;68477;42.698;23.342;2023-04-24T04:23:36;95074.41;;;10.06;58.35
79077;BME280;68477;42.698;23.342;2023-04-24T04:26:02;95073.56;;;9.82;57.33
79077;BME280;68477;42.698;23.342;2023-04-24T04:28:28;95076.78;;;9.92;57.82
79077;BME280;68477;42.698;23.342;2023-04-24T04:30:56;95081.41;;;9.90;56.93
79077;BME280;68477;42.698;23.342;2023-04-24T04:33:23;95077.81;;;10.14;56.20
79077;BME280;68477;42.698;23.342;2023-04-24T04:35:48;95084.91;;;10.06;56.96
79077;BME280;68477;42.698;23.342;2023-04-24T04:38:15;95081.84;;;10.02;56.31
79077;BME280;68477;42.698;23.342;2023-04-24T04:40:42;95084.66;;;9.92;56.43
79077;BME280;68477;42.698;23.342;2023-04-24T04:43:08;95095.81;;;9.95;57.25
79077;BME280;68477;42.698;23.342;2023-04-24T04:45:33;95094.56;;;9.82;57.06
79077;BME280;68477;42.698;23.342;2023-04-24T04:48:00;95094.13;;;10.10;57.17
79077;BME280;68477;42.698;23.342;2023-04-24T04:50:27;95101.41;;;10.31;56.39
79077;BME280;68477;42.698;23.342;2023-04-24T04:52:52;95096.66;;;10.18;58.42
79077;BME280;68477;42.698;23.342;2023-04-24T04:55:18;95098.06;;;10.06;57.00
79077;BME280;68477;42.698;23.342;2023-04-24T04:57:45;95103.69;;;9.95;57.25
79077;BME280;68477;42.698;23.342;2023-04-24T05:00:11;95109.00;;;10.26;56.98
79077;BME280;68477;42.698;23.342;2023-04-24T05:02:40;95106.69;;;10.54;57.38
79077;BME280;68477;42.698;23.342;2023-04-24T05:05:06;95115.66;;;10.59;58.95
79077;BME280;68477;42.698;23.342;2023-04-24T05:07:32;95111.00;;;10.69;59.54
79077;BME280;68477;42.698;23.342;2023-04-24T05:09:57;95111.94;;;10.76;60.66
79077;BME280;68477;42.698;23.342;2023-04-24T05:12:23;95114.66;;;10.60;60.14
79077;BME280;68477;42.698;23.342;2023-04-24T05:14:50;95104.69;;;10.33;60.14
79077;BME280;68477;42.698;23.342;2023-04-24T05:17:15;95111.69;;;10.40;58.43
79077;BME280;68477;42.698;23.342;2023-04-24T05:19:41;95113.72;;;10.53;58.27
79077;BME280;68477;42.698;23.342;2023-04-24T05:22:08;95107.59;;;10.61;59.02
79077;BME280;68477;42.698;23.342;2023-04-24T05:24:35;95102.97;;;10.40;57.71
79077;BME280;68477;42.698;23.342;2023-04-24T05:27:02;95107.25;;;10.64;57.38
79077;BME280;68477;42.698;23.342;2023-04-24T05:29:28;95102.38;;;10.30;57.88
79077;BME280;68477;42.698;23.342;2023-04-24T05:31:56;95102.94;;;10.48;58.01
79077;BME280;68477;42.698;23.342;2023-04-24T05:34:21;95105.09;;;10.67;56.78
79077;BME280;68477;42.698;23.342;2023-04-24T05:36:47;95101.00;;;10.42;58.62
79077;BME280;68477;42.698;23.342;2023-04-24T05:39:13;95105.56;;;10.71;59.20
79077;BME280;68477;42.698;23.342;2023-04-24T05:41:38;95115.00;;;11.03;57.21
79077;BME280;68477;42.698;23.342;2023-04-24T05:44:05;95114.06;;;10.96;56.84
79077;BME280;68477;42.698;23.342;2023-04-24T05:46:30;95111.72;;;11.01;56.91
79077;BME280;68477;42.698;23.342;2023-04-24T05:48:57;95114.34;;;11.01;56.14
79077;BME280;68477;42.698;23.342;2023-04-24T05:51:23;95105.78;;;10.84;56.08
79077;BME280;68477;42.698;23.342;2023-04-24T05:53:48;95116.22;;;10.92;57.18
79077;BME280;68477;42.698;23.342;2023-04-24T05:56:14;95112.97;;;10.90;55.74
79077;BME280;68477;42.698;23.342;2023-04-24T05:58:39;95108.56;;;10.83;57.45
79077;BME280;68477;42.698;23.342;2023-04-24T06:01:05;95106.09;;;11.04;57.09
79077;BME280;68477;42.698;23.342;2023-04-24T06:03:31;95107.59;;;11.21;56.91
79077;BME280;68477;42.698;23.342;2023-04-24T06:05:57;95109.78;;;11.47;55.44
79077;BME280;68477;42.698;23.342;2023-04-24T06:08:22;95109.22;;;11.37;56.16
79077;BME280;68477;42.698;23.342;2023-04-24T06:10:49;95116.69;;;11.33;55.78
79077;BME280;68477;42.698;23.342;2023-04-24T06:13:15;95112.97;;;11.72;55.08
79077;BME280;68477;42.698;23.342;2023-04-24T06:15:41;95112.31;;;12.00;54.09
79077;BME280;68477;42.698;23.342;2023-04-24T06:18:06;95106.06;;;12.37;53.00
79077;BME280;68477;42.698;23.342;2023-04-24T06:20:32;95108.44;;;12.53;52.08
79077;BME280;68477;42.698;23.342;2023-04-24T06:22:57;95102.69;;;12.64;51.84
79077;BME280;68477;42.698;23.342;2023-04-24T06:25:26;95101.97;;;12.77;52.08
79077;BME280;68477;42.698;23.342;2023-04-24T06:27:55;95106.94;;;12.87;50.60
79077;BME280;68477;42.698;23.342;2023-04-24T06:30:21;95108.84;;;12.50;53.29
79077;BME280;68477;42.698;23.342;2023-04-24T06:32:46;95105.94;;;12.88;52.69
79077;BME280;68477;42.698;23.342;2023-04-24T06:35:11;95108.84;;;12.71;51.23
79077;BME280;68477;42.698;23.342;2023-04-24T06:37:39;95106.13;;;12.86;51.88
79077;BME280;68477;42.698;23.342;2023-04-24T06:40:05;95107.75;;;12.87;52.21
79077;BME280;68477;42.698;23.342;2023-04-24T06:42:31;95112.84;;;12.89;53.06
79077;BME280;68477;42.698;23.342;2023-04-24T06:44:56;95120.19;;;13.15;51.71
79077;BME280;68477;42.698;23.342;2023-04-24T06:47:22;95115.66;;;13.08;50.75
79077;BME280;68477;42.698;23.342;2023-04-24T06:49:47;95105.63;;;13.19;51.39
79077;BME280;68477;42.698;23.342;2023-04-24T06:52:13;95106.09;;;13.29;50.97
79077;BME280;68477;42.698;23.342;2023-04-24T06:54:41;95108.34;;;13.32;50.19
79077;BME280;68477;42.698;23.342;2023-04-24T06:57:06;95106.34;;;13.68;50.21
79077;BME280;68477;42.698;23.342;2023-04-24T06:59:33;95099.59;;;13.94;52.26
79077;BME280;68477;42.698;23.342;2023-04-24T07:01:58;95098.13;;;13.91;50.72
79077;BME280;68477;42.698;23.342;2023-04-24T07:04:24;95096.66;;;13.48;50.44
79077;BME280;68477;42.698;23.342;2023-04-24T07:06:50;95091.97;;;13.43;52.11
79077;BME280;68477;42.698;23.342;2023-04-24T07:09:16;95090.72;;;13.74;51.61
79077;BME280;68477;42.698;23.342;2023-04-24T07:11:44;95088.75;;;13.82;50.79
79077;BME280;68477;42.698;23.342;2023-04-24T07:14:09;95084.97;;;14.05;50.46
79077;BME280;68477;42.698;23.342;2023-04-24T07:16:35;95089.34;;;14.32;49.69
79077;BME280;68477;42.698;23.342;2023-04-24T07:19:01;95083.53;;;14.56;49.44
79077;BME280;68477;42.698;23.342;2023-04-24T07:21:26;95082.72;;;14.82;49.52
79077;BME280;68477;42.698;23.342;2023-04-24T07:23:52;95088.00;;;14.69;49.23
79077;BME280;68477;42.698;23.342;2023-04-24T07:26:19;95088.16;;;14.41;49.82
79077;BME280;68477;42.698;23.342;2023-04-24T07:28:46;95079.50;;;14.06;50.55
79077;BME280;68477;42.698;23.342;2023-04-24T07:31:11;95086.81;;;14.92;47.29
79077;BME280;68477;42.698;23.342;2023-04-24T07:33:37;95075.19;;;15.06;47.23
79077;BME280;68477;42.698;23.342;2023-04-24T07:36:03;95080.13;;;14.96;46.79
79077;BME280;68477;42.698;23.342;2023-04-24T07:38:32;95077.19;;;15.50;47.74
79077;BME280;68477;42.698;23.342;2023-04-24T07:40:57;95080.88;;;15.69;46.71
79077;BME280;68477;42.698;23.342;2023-04-24T07:43:23;95071.34;;;16.06;44.85
79077;BME280;68477;42.698;23.342;2023-04-24T07:45:50;95064.91;;;16.34;46.59
79077;BME280;68477;42.698;23.342;2023-04-24T07:48:16;95065.22;;;16.50;44.53
79077;BME280;68477;42.698;23.342;2023-04-24T07:50:43;95066.81;;;16.20;45.94
79077;BME280;68477;42.698;23.342;2023-04-24T07:53:08;95065.13;;;16.64;44.67
79077;BME280;68477;42.698;23.342;2023-04-24T07:55:34;95068.34;;;16.79;44.10
79077;BME280;68477;42.698;23.342;2023-04-24T07:57:59;95057.47;;;17.12;41.39
79077;BME280;68477;42.698;23.342;2023-04-24T08:00:25;95060.38;;;17.04;39.97
79077;BME280;68477;42.698;23.342;2023-04-24T08:02:51;95062.69;;;17.00;41.77
79077;BME280;68477;42.698;23.342;2023-04-24T08:05:17;95052.06;;;17.62;43.07
79077;BME280;68477;42.698;23.342;2023-04-24T08:07:46;95050.66;;;17.41;41.91
79077;BME280;68477;42.698;23.342;2023-04-24T08:10:14;95053.34;;;17.78;42.22
79077;BME280;68477;42.698;23.342;2023-04-24T08:12:40;95058.41;;;17.42;42.03
79077;BME280;68477;42.698;23.342;2023-04-24T08:15:07;95055.66;;;17.74;42.03
79077;BME280;68477;42.698;23.342;2023-04-24T08:17:34;95041.28;;;18.12;40.81
79077;BME280;68477;42.698;23.342;2023-04-24T08:20:00;95039.78;;;18.34;40.11
79077;BME280;68477;42.698;23.342;2023-04-24T08:22:29;95045.97;;;18.16;41.31
79077;BME280;68477;42.698;23.342;2023-04-24T08:24:55;95043.84;;;18.67;40.80
79077;BME280;68477;42.698;23.342;2023-04-24T08:27:22;95046.34;;;18.50;39.95
79077;BME280;68477;42.698;23.342;2023-04-24T08:29:49;95037.66;;;18.84;38.69
79077;BME280;68477;42.698;23.342;2023-04-24T08:32:15;95031.44;;;18.60;37.95
79077;BME280;68477;42.698;23.342;2023-04-24T08:34:40;95040.00;;;18.62;39.85
79077;BME280;68477;42.698;23.342;2023-04-24T08:37:06;95037.88;;;18.83;39.00
79077;BME280;68477;42.698;23.342;2023-04-24T08:39:31;95027.00;;;18.84;39.01
79077;BME280;68477;42.698;23.342;2023-04-24T08:41:57;95033.19;;;18.67;39.22
79077;BME280;68477;42.698;23.342;2023-04-24T08:44:32;95013.38;;;18.62;39.48
79077;BME280;68477;42.698;23.342;2023-04-24T08:46:57;95013.22;;;19.11;38.99
79077;BME280;68477;42.698;23.342;2023-04-24T08:49:24;95013.72;;;19.19;37.71
79077;BME280;68477;42.698;23.342;2023-04-24T08:51:50;95011.38;;;19.46;38.58
79077;BME280;68477;42.698;23.342;2023-04-24T08:54:18;95005.00;;;19.36;38.39
79077;BME280;68477;42.698;23.342;2023-04-24T08:56:44;95004.88;;;19.77;38.29
79077;BME280;68477;42.698;23.342;2023-04-24T08:59:13;94999.06;;;19.69;36.84
79077;BME280;68477;42.698;23.342;2023-04-24T09:01:40;94997.00;;;19.71;38.84
79077;BME280;68477;42.698;23.342;2023-04-24T09:04:08;94998.94;;;19.87;38.09
79077;BME280;68477;42.698;23.342;2023-04-24T09:06:38;94989.84;;;20.00;36.58
79077;BME280;68477;42.698;23.342;2023-04-24T09:09:04;94985.28;;;20.12;36.82
79077;BME280;68477;42.698;23.342;2023-04-24T09:11:31;94986.28;;;20.23;37.16
79077;BME280;68477;42.698;23.342;2023-04-24T09:13:58;94984.84;;;20.32;33.99
79077;BME280;68477;42.698;23.342;2023-04-24T09:16:25;94979.97;;;20.57;35.92
79077;BME280;68477;42.698;23.342;2023-04-24T09:18:51;94975.66;;;20.40;34.75
79077;BME280;68477;42.698;23.342;2023-04-24T09:21:16;94974.16;;;20.77;35.83
79077;BME280;68477;42.698;23.342;2023-04-24T09:23:42;94974.09;;;20.15;34.77
79077;BME280;68477;42.698;23.342;2023-04-24T09:26:09;94961.38;;;20.62;33.64
79077;BME280;68477;42.698;23.342;2023-04-24T09:28:39;94963.47;;;20.77;32.53
79077;BME280;68477;42.698;23.342;2023-04-24T09:31:15;94960.56;;;20.96;32.88
79077;BME280;68477;42.698;23.342;2023-04-24T09:33:57;94956.34;;;21.00;33.95
79077;BME280;68477;42.698;23.342;2023-04-24T09:36:31;94951.59;;;20.85;33.01
79077;BME280;68477;42.698;23.342;2023-04-24T09:39:03;94946.94;;;21.14;33.73
79077;BME280;68477;42.698;23.342;2023-04-24T09:41:31;94943.38;;;20.91;32.66
79077;BME280;68477;42.698;23.342;2023-04-24T09:44:11;94952.22;;;21.09;33.13
79077;BME280;68477;42.698;23.342;2023-04-24T09:46:37;94950.69;;;20.96;31.78
79077;BME280;68477;42.698;23.342;2023-04-24T09:49:12;94950.91;;;20.94;32.99
79077;BME280;68477;42.698;23.342;2023-04-24T09:51:38;94947.19;;;21.12;32.33
79077;BME280;68477;42.698;23.342;2023-04-24T09:54:24;94942.59;;;21.46;33.41
79077;BME280;68477;42.698;23.342;2023-04-24T09:56:51;94945.53;;;21.67;31.52
79077;BME280;68477;42.698;23.342;2023-04-24T09:59:18;94934.84;;;21.67;30.21
79077;BME280;68477;42.698;23.342;2023-04-24T10:01:45;94931.22;;;22.00;31.63
79077;BME280;68477;42.698;23.342;2023-04-24T10:04:22;94931.97;;;22.44;30.95
79077;BME280;68477;42.698;23.342;2023-04-24T10:06:50;94922.06;;;22.50;30.72
79077;BME280;68477;42.698;23.342;2023-04-24T10:09:20;94924.19;;;22.43;30.38
79077;BME280;68477;42.698;23.342;2023-04-24T10:11:51;94924.13;;;22.70;29.09
79077;BME280;68477;42.698;23.342;2023-04-24T10:14:20;94908.16;;;22.21;29.25
79077;BME280;68477;42.698;23.342;2023-04-24T10:16:48;94908.75;;;22.28;30.30
79077;BME280;68477;42.698;23.342;2023-04-24T10:19:15;94897.41;;;21.72;31.66
79077;BME280;68477;42.698;23.342;2023-04-24T10:21:43;94894.91;;;21.87;30.06
79077;BME280;68477;42.698;23.342;2023-04-24T10:24:18;94898.94;;;21.90;31.07
79077;BME280;68477;42.698;23.342;2023-04-24T10:26:46;94893.66;;;21.73;31.67
79077;BME280;68477;42.698;23.342;2023-04-24T10:29:14;94895.69;;;22.36;31.76
79077;BME280;68477;42.698;23.342;2023-04-24T10:31:40;94894.97;;;22.46;29.37
79077;BME280;68477;42.698;23.342;2023-04-24T10:34:08;94892.50;;;23.09;30.04
79077;BME280;68477;42.698;23.342;2023-04-24T10:36:34;94881.59;;;23.73;29.90
79077;BME280;68477;42.698;23.342;2023-04-24T10:39:03;94877.78;;;23.59;29.61
79077;BME280;68477;42.698;23.342;2023-04-24T10:41:31;94883.25;;;23.32;29.21
79077;BME280;68477;42.698;23.342;2023-04-24T10:44:11;94872.81;;;23.40;28.32
79077;BME280;68477;42.698;23.342;2023-04-24T10:46:38;94874.84;;;23.18;28.06
79077;BME280;68477;42.698;23.342;2023-04-24T10:49:07;94867.94;;;22.85;28.16
79077;BME280;68477;42.698;23.342;2023-04-24T10:51:48;94863.59;;;21.88;32.11
79077;BME280;68477;42.698;23.342;2023-04-24T10:54:26;94857.44;;;21.87;29.57
79077;BME280;68477;42.698;23.342;2023-04-24T10:56:53;94849.69;;;21.64;29.76
79077;BME280;68477;42.698;23.342;2023-04-24T10:59:26;94861.69;;;21.61;30.43
79077;BME280;68477;42.698;23.342;2023-04-24T11:01:55;94854.91;;;21.32;32.27
79077;BME280;68477;42.698;23.342;2023-04-24T11:04:31;94857.19;;;21.23;32.34
79077;BME280;68477;42.698;23.342;2023-04-24T11:06:57;94846.72;;;21.21;32.76
79077;BME280;68477;42.698;23.342;2023-04-24T11:09:26;94847.97;;;21.31;32.32
79077;BME280;68477;42.698;23.342;2023-04-24T11:12:03;94848.59;;;21.21;32.90
79077;BME280;68477;42.698;23.342;2023-04-24T11:14:29;94848.13;;;20.69;35.64
79077;BME280;68477;42.698;23.342;2023-04-24T11:16:54;94846.59;;;20.39;35.22
79077;BME280;68477;42.698;23.342;2023-04-24T11:19:24;94840.75;;;20.25;34.88
79077;BME280;68477;42.698;23.342;2023-04-24T11:22:05;94840.44;;;20.05;35.46
79077;BME280;68477;42.698;23.342;2023-04-24T11:24:48;94866.03;;;19.89;37.04
79077;BME280;68477;42.698;23.342;2023-04-24T11:32:28;94901.31;;;18.46;47.56
79077;BME280;68477;42.698;23.342;2023-04-24T11:35:29;94898.28;;;18.19;48.55
79077;BME280;68477;42.698;23.342;2023-04-24T11:37:53;94888.84;;;18.46;52.31
79077;BME280;68477;42.698;23.342;2023-04-24T11:40:21;94886.47;;;18.92;58.82
79077;BME280;68477;42.698;23.342;2023-04-24T11:42:52;94885.09;;;19.41;53.32
79077;BME280;68477;42.698;23.342;2023-04-24T11:45:20;94877.28;;;18.76;49.97
79077;BME280;68477;42.698;23.342;2023-04-24T11:47:46;94881.91;;;19.15;41.29
79077;BME280;68477;42.698;23.342;2023-04-24T11:50:15;94868.56;;;19.27;42.05
79077;BME280;68477;42.698;23.342;2023-04-24T11:52:42;94859.38;;;19.75;39.81
79077;BME280;68477;42.698;23.342;2023-04-24T11:55:23;94859.06;;;20.84;37.63
79077;BME280;68477;42.698;23.342;2023-04-24T11:57:59;94853.78;;;20.89;44.02
79077;BME280;68477;42.698;23.342;2023-04-24T12:00:29;94850.56;;;20.70;37.88
79077;BME280;68477;42.698;23.342;2023-04-24T12:05:30;94850.97;;;20.79;35.63
79077;BME280;68477;42.698;23.342;2023-04-24T12:07:56;94843.00;;;21.22;34.07
79077;BME280;68477;42.698;23.342;2023-04-24T12:10:23;94842.81;;;21.07;32.82
79077;BME280;68477;42.698;23.342;2023-04-24T12:12:50;94847.22;;;20.80;35.22
79077;BME280;68477;42.698;23.342;2023-04-24T12:15:18;94836.00;;;20.27;33.75
79077;BME280;68477;42.698;23.342;2023-04-24T12:17:44;94828.84;;;19.42;35.64
79077;BME280;68477;42.698;23.342;2023-04-24T12:20:10;94822.31;;;20.07;34.28
79077;BME280;68477;42.698;23.342;2023-04-24T12:22:57;94828.88;;;20.33;34.86
79077;BME280;68477;42.698;23.342;2023-04-24T12:25:28;94820.03;;;20.32;34.67
79077;BME280;68477;42.698;23.342;2023-04-24T12:28:16;94821.28;;;19.80;35.82
79077;BME280;68477;42.698;23.342;2023-04-24T12:30:42;94812.09;;;19.87;35.84
79077;BME280;68477;42.698;23.342;2023-04-24T12:33:19;94799.78;;;20.03;35.35
79077;BME280;68477;42.698;23.342;2023-04-24T12:35:45;94795.53;;;20.19;35.35
79077;BME280;68477;42.698;23.342;2023-04-24T12:38:12;94792.72;;;20.42;39.29
79077;BME280;68477;42.698;23.342;2023-04-24T12:40:38;94782.31;;;20.62;34.82
79077;BME280;68477;42.698;23.342;2023-04-24T12:43:15;94778.81;;;21.01;35.96
79077;BME280;68477;42.698;23.342;2023-04-24T12:45:40;94774.56;;;21.05;34.05
79077;BME280;68477;42.698;23.342;2023-04-24T12:48:06;94780.34;;;20.75;33.79
79077;BME280;68477;42.698;23.342;2023-04-24T12:50:31;94774.72;;;20.04;35.51
79077;BME280;68477;42.698;23.342;2023-04-24T12:52:57;94785.00;;;20.46;35.78
79077;BME280;68477;42.698;23.342;2023-04-24T12:55:22;94754.56;;;19.80;34.49
79077;BME280;68477;42.698;23.342;2023-04-24T12:57:48;94752.94;;;19.78;36.59
79077;BME280;68477;42.698;23.342;2023-04-24T13:00:14;94745.03;;;20.00;35.19